< Typhoon 195910 1959 Season Typhoon 195912 >
Typhoon 195911 (LOUISE)
General InformationTrack Information on Google Maps || Disaster Info.ResourceGoogle EarthGE AnimationAtom FeedGeoJSON
Detalied Best Track (Time Zone = UTC)
Year Month Day Hour Lat. Long. Pressure (hPa) Wind (kt) Class Image Chart
1959 8 29 06 11.6 147.5 1007 0 2 -- Chart
1959 8 29 12 12.2 145.8 1008 0 2 -- Chart
1959 8 29 18 12.8 144.0 1007 0 2 -- Chart
1959 8 30 00 13.4 142.6 1008 0 2 -- Chart
1959 8 30 06 13.8 141.0 1006 0 2 -- Chart
1959 8 30 12 14.0 139.6 1008 0 2 -- Chart
1959 8 30 18 14.0 138.0 1006 0 2 -- Chart
1959 8 31 00 14.1 136.3 1004 0 2 -- Chart
1959 8 31 06 14.2 135.1 1000 0 2 -- Chart
1959 8 31 12 14.5 133.9 1000 0 2 -- Chart
1959 8 31 18 14.8 132.5 1000 0 2 -- Chart
1959 9 1 00 15.0 131.2 996 0 9 -- Chart
1959 9 1 06 15.1 130.0 990 0 9 -- Chart
1959 9 1 12 15.8 128.6 990 0 9 -- Chart
1959 9 1 18 16.3 127.3 985 0 9 -- Chart
1959 9 2 00 16.8 126.3 985 0 9 -- Chart
1959 9 2 06 17.8 125.4 975 0 9 -- Chart
1959 9 2 12 18.9 124.7 975 0 9 -- Chart
1959 9 2 18 20.1 123.9 975 0 9 -- Chart
1959 9 3 00 21.3 123.1 965 0 9 -- Chart
1959 9 3 06 22.5 122.2 965 0 9 -- Chart
1959 9 3 12 24.0 121.6 965 0 9 -- Chart
1959 9 3 18 24.8 121.2 970 0 9 -- Chart
1959 9 4 00 25.3 120.6 980 0 9 -- Chart
1959 9 4 06 25.9 120.1 990 0 9 -- Chart
1959 9 4 12 26.5 120.0 998 0 9 -- Chart
1959 9 4 18 27.0 120.0 994 0 2 -- Chart
1959 9 5 00 27.4 120.5 998 0 2 -- Chart
1959 9 5 06 28.0 121.0 998 0 2 -- Chart
1959 9 5 12 29.0 121.2 998 0 2 -- Chart
1959 9 5 18 30.4 121.5 998 0 2 -- Chart
1959 9 6 00 31.8 121.8 998 0 2 -- Chart
1959 9 6 06 32.5 122.0 1000 0 2 -- Chart
1959 9 6 12 33.4 122.5 1000 0 6 -- Chart
1959 9 6 18 35.5 123.5 998 0 6 -- Chart
1959 9 7 00 37.5 124.5 996 0 6 -- Chart
1959 9 7 06 39.0 125.0 996 0 6 -- Chart
1959 9 7 12 41.0 125.0 998 0 6 -- Chart
1959 9 7 18 43.0 125.0 1000 0 6 -- Chart
1959 9 8 00 44.0 124.0 1000 0 6 -- Chart
1959 9 8 06 44.5 123.5 1004 0 6 -- Chart
1959 9 8 12 44.5 122.5 1004 0 6 -- Chart
1959 9 8 18 44.5 121.5 1004 0 6 -- Chart
1959 9 9 00 44.5 121.0 1004 0 6 -- Chart
Japan Meteorological Agency Best Track Data | Correction Date : 1989-06-01
< Typhoon 195910 1959 Season Typhoon 195912 >

Help